createdAt,value
2022-09-05T00:00:27.607Z,39.74
2022-09-05T00:03:20.706Z,39.91
2022-09-05T00:06:06.278Z,39.76
2022-09-05T00:09:23.727Z,39.76
2022-09-05T00:12:02.859Z,39.69
2022-09-05T00:15:17.055Z,39.81
2022-09-05T00:22:33.181Z,40.00
2022-09-05T00:24:33.159Z,40.00
2022-09-05T00:24:34.359Z,39.97
2022-09-05T00:27:14.281Z,40.09
2022-09-05T00:31:07.326Z,40.07
2022-09-05T00:33:17.469Z,40.10
2022-09-05T00:36:11.602Z,40.12
2022-09-05T00:38:46.726Z,40.21
2022-09-05T00:41:18.957Z,40.16
2022-09-05T00:43:52.303Z,40.18
2022-09-05T00:46:32.081Z,40.09
2022-09-05T00:49:28.332Z,40.13
2022-09-05T00:52:11.631Z,40.02
2022-09-05T00:55:16.561Z,40.07
2022-09-05T00:58:22.826Z,40.12
2022-09-05T01:01:02.261Z,40.18
2022-09-05T01:03:44.488Z,40.12
2022-09-05T01:06:40.238Z,40.21
2022-09-05T01:09:36.776Z,40.14
2022-09-05T01:12:52.878Z,40.03
2022-09-05T01:15:33.688Z,40.10
2022-09-05T01:18:56.761Z,40.19
2022-09-05T01:22:07.467Z,40.19
2022-09-05T01:25:15.203Z,40.31
2022-09-05T01:29:16.895Z,40.32
2022-09-05T01:31:36.340Z,40.40
2022-09-05T01:34:44.014Z,40.23
2022-09-05T01:37:33.946Z,40.34
2022-09-05T01:40:31.823Z,40.46
2022-09-05T01:43:34.072Z,40.33
2022-09-05T01:46:47.427Z,40.29
2022-09-05T01:50:03.136Z,40.29
2022-09-05T01:53:00.169Z,40.12
2022-09-05T01:56:05.581Z,40.28
2022-09-05T01:59:10.123Z,40.30
2022-09-05T02:02:08.785Z,40.29
2022-09-05T02:05:09.843Z,40.43
2022-09-05T02:07:58.183Z,40.52
2022-09-05T02:11:06.026Z,40.63
2022-09-05T02:13:57.540Z,40.65
2022-09-05T02:16:44.054Z,40.76
2022-09-05T02:19:32.570Z,40.87
2022-09-05T02:22:13.540Z,40.83
2022-09-05T02:24:48.953Z,41.07
2022-09-05T02:28:04.331Z,41.17
2022-09-05T02:30:19.256Z,41.13
2022-09-05T02:33:09.733Z,41.10
2022-09-05T02:35:57.222Z,41.03
2022-09-05T02:44:13.860Z,41.18
2022-09-05T02:45:06.150Z,41.41
2022-09-05T02:45:10.436Z,41.18
2022-09-05T02:47:23.981Z,41.73
2022-09-05T02:54:40.219Z,41.82
2022-09-05T02:57:29.754Z,42.10
2022-09-05T02:57:41.139Z,42.49
2022-09-05T02:59:10.105Z,42.62
2022-09-05T03:02:25.227Z,42.66
2022-09-05T03:04:55.452Z,42.81
2022-09-05T03:08:13.575Z,43.41
2022-09-05T03:11:07.173Z,43.27
2022-09-05T03:14:10.894Z,43.43
2022-09-05T03:17:28.559Z,43.70
2022-09-05T03:20:40.493Z,43.94
2022-09-05T03:23:43.781Z,44.36
2022-09-05T03:26:24.949Z,44.50
2022-09-05T03:29:40.987Z,44.49
2022-09-05T03:32:45.894Z,44.73
2022-09-05T03:35:50.347Z,44.95
2022-09-05T03:38:51.861Z,45.12
2022-09-05T03:42:16.694Z,45.50
2022-09-05T03:45:36.711Z,45.45
2022-09-05T03:48:44.347Z,45.42
2022-09-05T03:57:04.803Z,45.63
2022-09-05T03:57:27.458Z,45.76
2022-09-05T03:57:42.727Z,46.02
2022-09-05T04:00:30.470Z,46.32
2022-09-05T04:08:06.107Z,45.79
2022-09-05T04:08:15.654Z,45.79
2022-09-05T04:09:51.950Z,45.97
2022-09-05T04:12:36.971Z,46.18
2022-09-05T04:15:31.217Z,46.00
2022-09-05T04:18:17.807Z,45.77
2022-09-05T04:21:02.666Z,45.79
2022-09-05T04:24:00.747Z,46.25
2022-09-05T04:27:04.460Z,46.28
2022-09-05T04:30:27.615Z,46.35
2022-09-05T04:32:54.844Z,46.49
2022-09-05T04:35:41.793Z,46.55
2022-09-05T04:38:18.531Z,46.84
2022-09-05T04:41:05.471Z,46.78
2022-09-05T04:44:02.667Z,46.28
2022-09-05T04:46:51.334Z,46.32
2022-09-05T04:49:30.716Z,46.62
2022-09-05T04:52:31.006Z,47.08
2022-09-05T04:55:15.565Z,47.00
2022-09-05T04:58:09.733Z,46.63
2022-09-05T05:05:59.626Z,47.15
2022-09-05T05:06:10.498Z,47.22
2022-09-05T05:06:45.633Z,47.20
2022-09-05T05:09:29.320Z,47.00
2022-09-05T05:18:00.978Z,47.47
2022-09-05T05:18:09.264Z,47.30
2022-09-05T05:18:37.705Z,47.45
2022-09-05T05:21:06.124Z,47.70
2022-09-05T05:23:43.936Z,47.96
2022-09-05T05:26:33.187Z,47.72
2022-09-05T05:29:29.369Z,47.70
2022-09-05T05:32:03.562Z,47.99
2022-09-05T05:34:46.512Z,47.85
2022-09-05T05:37:41.205Z,48.63
2022-09-05T05:40:29.138Z,49.41
2022-09-05T05:43:26.292Z,50.06
2022-09-05T05:46:02.715Z,50.73
2022-09-05T05:48:42.184Z,50.34
2022-09-05T05:52:01.296Z,50.94
2022-09-05T05:55:24.341Z,51.29
2022-09-05T05:58:17.338Z,51.37
2022-09-05T06:01:03.583Z,51.37
2022-09-05T06:04:06.980Z,50.34
2022-09-05T06:07:02.803Z,49.57
2022-09-05T06:14:54.741Z,48.22
2022-09-05T06:15:02.949Z,47.94
2022-09-05T06:15:44.209Z,46.32
2022-09-05T06:18:49.765Z,45.44
2022-09-05T06:22:08.552Z,45.25
2022-09-05T06:24:27.515Z,45.25
2022-09-05T06:28:01.481Z,44.70
2022-09-05T06:30:23.074Z,44.15
2022-09-05T06:33:28.921Z,43.27
2022-09-05T06:36:33.406Z,44.12
2022-09-05T06:39:32.144Z,45.14
2022-09-05T06:42:42.878Z,45.98
2022-09-05T06:45:34.823Z,47.05
2022-09-05T06:48:30.529Z,47.91
2022-09-05T06:51:14.707Z,48.69
2022-09-05T06:54:32.637Z,50.47
2022-09-05T06:57:31.118Z,53.93
2022-09-05T07:00:22.889Z,55.88
2022-09-05T07:03:18.996Z,57.53
2022-09-05T07:06:25.343Z,59.24
2022-09-05T07:09:23.108Z,59.92
2022-09-05T07:12:20.261Z,61.51
2022-09-05T07:15:09.583Z,62.45
2022-09-05T07:18:19.163Z,62.67
2022-09-05T07:21:26.205Z,63.35
2022-09-05T07:24:53.408Z,64.08
2022-09-05T07:26:53.657Z,67.20
2022-09-05T07:29:38.196Z,68.20
2022-09-05T07:32:11.939Z,68.63
2022-09-05T07:34:46.944Z,69.26
2022-09-05T07:37:24.851Z,69.49
2022-09-05T07:40:11.554Z,69.95
2022-09-05T07:42:46.126Z,69.74
2022-09-05T07:45:29.621Z,70.55
2022-09-05T07:48:35.085Z,72.72
2022-09-05T07:55:12.374Z,73.51
2022-09-05T07:56:51.340Z,74.49
2022-09-05T07:56:56.185Z,74.07
2022-09-05T07:58:52.505Z,74.94
2022-09-05T08:01:26.202Z,74.92
2022-09-05T08:04:05.674Z,74.95
2022-09-05T08:07:11.999Z,74.69
2022-09-05T08:10:00.893Z,74.36
2022-09-05T08:12:01.028Z,74.38
2022-09-05T08:15:10.297Z,74.11
2022-09-05T08:18:32.732Z,74.17
2022-09-05T08:21:40.739Z,74.00
2022-09-05T08:24:30.509Z,74.17
2022-09-05T08:27:22.946Z,74.05
2022-09-05T08:30:24.635Z,74.12
2022-09-05T08:32:52.985Z,73.77
2022-09-05T08:35:44.410Z,73.21
2022-09-05T08:38:19.049Z,72.31
2022-09-05T08:40:57.214Z,72.14
2022-09-05T08:46:35.435Z,68.90
2022-09-05T08:46:43.267Z,64.22
2022-09-05T08:49:32.276Z,60.67
2022-09-05T08:52:00.822Z,57.18
2022-09-05T08:55:04.371Z,54.45
2022-09-05T08:57:53.806Z,52.86
2022-09-05T09:00:31.394Z,50.73
2022-09-05T09:03:32.134Z,48.69
2022-09-05T09:06:19.548Z,48.51
2022-09-05T09:09:18.163Z,46.50
2022-09-05T09:12:19.242Z,47.75
2022-09-05T09:15:15.067Z,47.66
2022-09-05T09:18:10.749Z,47.46
2022-09-05T09:21:11.872Z,47.87
2022-09-05T09:23:52.392Z,45.46
2022-09-05T09:26:32.612Z,44.43
2022-09-05T09:29:13.782Z,43.67
2022-09-05T09:32:09.597Z,43.33
2022-09-05T09:34:58.385Z,43.03
2022-09-05T09:38:05.343Z,43.42
2022-09-05T09:41:01.128Z,40.35
2022-09-05T09:43:52.601Z,40.01
2022-09-05T09:46:44.609Z,39.29
2022-09-05T09:49:45.179Z,37.88
2022-09-05T09:52:56.658Z,36.36
2022-09-05T09:56:10.475Z,38.35
2022-09-05T09:58:54.610Z,36.44
2022-09-05T10:02:26.755Z,37.74
2022-09-05T10:10:34.568Z,36.14
2022-09-05T10:10:55.126Z,35.55
2022-09-05T10:11:37.662Z,36.02
2022-09-05T10:14:07.416Z,37.12
2022-09-05T10:17:08.298Z,39.03
2022-09-05T10:20:10.875Z,43.50
2022-09-05T10:23:28.800Z,49.69
2022-09-05T10:26:41.135Z,52.11
2022-09-05T10:29:37.629Z,54.20
2022-09-05T10:35:04.765Z,53.98
2022-09-05T10:35:13.965Z,54.46
2022-09-05T10:37:51.390Z,55.20
2022-09-05T10:40:25.825Z,53.39
2022-09-05T10:43:15.106Z,53.48
2022-09-05T10:46:01.767Z,53.08
2022-09-05T10:48:57.299Z,54.70
2022-09-05T10:51:38.018Z,54.29
2022-09-05T10:54:41.450Z,52.90
2022-09-05T10:57:40.196Z,49.72
2022-09-05T11:02:20.276Z,50.21
2022-09-05T11:03:23.668Z,48.65
2022-09-05T11:06:09.156Z,44.63
2022-09-05T11:08:56.380Z,44.95
2022-09-05T11:11:37.431Z,46.18
2022-09-05T11:14:39.595Z,44.90
2022-09-05T11:17:30.915Z,42.64
2022-09-05T11:20:35.420Z,41.15
2022-09-05T11:23:05.802Z,40.91
2022-09-05T11:25:41.360Z,44.25
2022-09-05T11:28:57.462Z,39.54
2022-09-05T11:31:20.635Z,40.22
2022-09-05T11:39:38.083Z,37.18
2022-09-05T11:39:51.796Z,35.41
2022-09-05T11:40:30.054Z,36.31
2022-09-05T11:42:50.238Z,36.92
2022-09-05T11:46:02.171Z,35.89
2022-09-05T11:48:55.501Z,35.70
2022-09-05T11:51:38.626Z,36.10
2022-09-05T11:54:26.884Z,37.52
2022-09-05T11:57:39.488Z,37.52
2022-09-05T12:00:35.777Z,36.13
2022-09-05T12:03:58.990Z,35.40
2022-09-05T12:06:31.263Z,35.58
2022-09-05T12:09:29.857Z,35.15
2022-09-05T12:12:41.685Z,34.22
2022-09-05T12:15:33.540Z,33.45
2022-09-05T12:18:31.081Z,33.50
2022-09-05T12:21:38.176Z,34.46
2022-09-05T12:25:16.418Z,34.46
2022-09-05T12:27:35.776Z,33.54
2022-09-05T12:29:51.192Z,33.54
2022-09-05T12:33:58.432Z,32.85
2022-09-05T12:40:55.203Z,33.47
2022-09-05T12:41:35.733Z,34.80
2022-09-05T12:44:36.298Z,34.80
2022-09-05T12:46:24.301Z,33.93
2022-09-05T12:49:11.405Z,34.64
2022-09-05T12:51:48.693Z,34.71
2022-09-05T12:54:34.768Z,34.44
2022-09-05T13:00:26.305Z,35.16
2022-09-05T13:03:02.089Z,35.51
2022-09-05T13:03:29.118Z,36.06
2022-09-05T13:05:55.951Z,35.98
2022-09-05T13:08:36.627Z,36.26
2022-09-05T13:14:52.375Z,37.01
2022-09-05T13:14:58.315Z,37.39
2022-09-05T13:16:30.908Z,37.91
2022-09-05T13:19:36.899Z,37.26
2022-09-05T13:22:11.392Z,37.89
2022-09-05T13:24:46.024Z,38.84
2022-09-05T13:27:29.824Z,38.26
2022-09-05T13:37:55.196Z,37.95
2022-09-05T13:38:01.425Z,38.95
2022-09-05T13:38:11.852Z,38.49
2022-09-05T13:38:47.507Z,37.79
2022-09-05T13:40:59.854Z,38.22
2022-09-05T13:43:38.565Z,38.84
2022-09-05T13:46:21.095Z,37.64
2022-09-05T13:51:43.391Z,37.76
2022-09-05T13:54:36.745Z,37.18
2022-09-05T13:57:32.239Z,38.85
2022-09-05T14:00:28.356Z,38.72
2022-09-05T14:03:31.015Z,37.21
2022-09-05T14:06:47.007Z,37.43
2022-09-05T14:09:45.871Z,38.13
2022-09-05T14:12:43.323Z,37.83
2022-09-05T14:15:52.362Z,37.82
2022-09-05T14:18:34.046Z,37.48
2022-09-05T14:21:20.065Z,37.49
2022-09-05T14:24:06.314Z,37.20
2022-09-05T14:27:00.830Z,37.16
2022-09-05T14:29:42.007Z,38.18
2022-09-05T14:37:41.898Z,38.62
2022-09-05T14:37:44.562Z,38.18
2022-09-05T14:38:19.354Z,38.58
2022-09-05T14:41:48.782Z,39.60
2022-09-05T14:44:32.194Z,40.36
2022-09-05T14:47:32.324Z,40.92
2022-09-05T14:50:06.525Z,41.27
2022-09-05T14:52:43.283Z,41.35
2022-09-05T15:02:42.723Z,42.93
2022-09-05T15:02:42.986Z,42.70
2022-09-05T15:03:04.560Z,40.81
2022-09-05T15:05:45.045Z,42.48
2022-09-05T15:11:24.332Z,42.04
2022-09-05T15:12:16.664Z,43.02
2022-09-05T15:13:47.209Z,43.35
2022-09-05T15:16:22.007Z,44.60
2022-09-05T15:18:56.527Z,43.35
2022-09-05T15:21:35.148Z,42.60
2022-09-05T15:24:24.625Z,42.98
2022-09-05T15:27:00.718Z,43.57
2022-09-05T15:29:35.560Z,42.62
2022-09-05T15:32:23.803Z,44.37
2022-09-05T15:35:00.337Z,44.01
2022-09-05T15:37:43.503Z,43.87
2022-09-05T15:40:23.833Z,44.28
2022-09-05T15:43:02.234Z,44.30
2022-09-05T15:45:36.678Z,44.82
2022-09-05T15:48:26.077Z,45.13
2022-09-05T15:51:03.475Z,45.78
2022-09-05T15:53:39.956Z,45.32
2022-09-05T15:56:20.059Z,45.60
2022-09-05T15:58:57.063Z,45.89
2022-09-05T16:01:59.507Z,45.45
2022-09-05T16:08:17.048Z,45.44
2022-09-05T16:10:28.466Z,45.41
2022-09-05T16:10:50.978Z,45.79
2022-09-05T16:12:19.355Z,46.01
2022-09-05T16:16:40.423Z,45.55
2022-09-05T16:23:17.071Z,45.97
2022-09-05T16:23:24.935Z,46.29
2022-09-05T16:23:39.574Z,46.54
2022-09-05T16:26:04.181Z,46.31
2022-09-05T16:28:49.252Z,46.27
2022-09-05T16:31:43.868Z,46.38
2022-09-05T16:34:39.955Z,45.98
2022-09-05T16:37:26.775Z,45.96
2022-09-05T16:40:29.574Z,46.28
2022-09-05T16:43:28.929Z,46.46
2022-09-05T16:46:33.821Z,46.44
2022-09-05T16:49:43.339Z,47.42
2022-09-05T16:52:17.207Z,46.77
2022-09-05T16:54:53.304Z,47.41
2022-09-05T16:57:36.641Z,47.67
2022-09-05T17:00:31.492Z,47.81
2022-09-05T17:03:40.905Z,47.13
2022-09-05T17:06:53.268Z,46.87
2022-09-05T17:09:30.513Z,46.99
2022-09-05T17:12:05.908Z,46.70
2022-09-05T17:14:44.191Z,46.65
2022-09-05T17:18:19.063Z,46.34
2022-09-05T17:20:06.980Z,47.29
2022-09-05T17:29:17.192Z,47.20
2022-09-05T17:29:25.567Z,47.95
2022-09-05T17:29:47.363Z,47.23
2022-09-05T17:31:51.744Z,46.80
2022-09-05T17:33:45.248Z,46.21
2022-09-05T17:36:51.163Z,45.83
2022-09-05T17:39:44.947Z,45.77
2022-09-05T17:42:43.855Z,46.41
2022-09-05T17:45:30.749Z,46.92
2022-09-05T17:48:03.899Z,47.22
2022-09-05T17:51:05.641Z,47.10
2022-09-05T17:54:04.707Z,47.76
2022-09-05T17:56:46.911Z,48.26
2022-09-05T17:59:25.293Z,47.96
2022-09-05T18:02:10.742Z,47.99
2022-09-05T18:04:52.568Z,47.76
2022-09-05T18:07:33.412Z,47.88
2022-09-05T18:10:15.029Z,48.41
2022-09-05T18:13:12.562Z,48.72
2022-09-05T18:15:35.742Z,48.42
2022-09-05T18:18:16.902Z,48.36
2022-09-05T18:20:55.784Z,48.46
2022-09-05T18:23:46.687Z,48.66
2022-09-05T18:26:25.328Z,49.17
2022-09-05T18:29:57.878Z,49.50
2022-09-05T18:32:05.890Z,49.44
2022-09-05T18:34:43.426Z,49.14
2022-09-05T18:37:41.618Z,49.04
2022-09-05T18:40:39.597Z,48.88
2022-09-05T18:43:42.353Z,48.90
2022-09-05T18:46:33.791Z,49.00
2022-09-05T18:50:22.064Z,49.41
2022-09-05T18:52:23.695Z,48.91
2022-09-05T18:56:09.629Z,48.99
2022-09-05T18:57:38.394Z,49.05
2022-09-05T19:00:15.223Z,49.08
2022-09-05T19:02:58.976Z,48.76
2022-09-05T19:06:34.866Z,49.05
2022-09-05T19:08:40.884Z,49.26
2022-09-05T19:11:27.705Z,49.19
2022-09-05T19:14:08.101Z,49.97
2022-09-05T19:16:44.067Z,49.33
2022-09-05T19:19:24.428Z,49.45
2022-09-05T19:22:39.602Z,49.62
2022-09-05T19:24:45.594Z,49.89
2022-09-05T19:28:02.796Z,50.11
2022-09-05T19:36:46.395Z,49.86
2022-09-05T19:36:50.206Z,49.88
2022-09-05T19:37:15.103Z,49.37
2022-09-05T19:37:42.637Z,50.18
2022-09-05T19:43:01.215Z,50.11
2022-09-05T19:47:31.387Z,49.94
2022-09-05T19:47:42.047Z,49.90
2022-09-05T19:48:29.009Z,49.68
2022-09-05T19:51:17.155Z,49.16
2022-09-05T19:54:03.932Z,49.36
2022-09-05T19:56:30.288Z,49.84
2022-09-05T19:59:19.573Z,49.47
2022-09-05T20:01:53.425Z,49.66
2022-09-05T20:04:27.835Z,49.01
2022-09-05T20:07:01.603Z,49.33
2022-09-05T20:09:35.545Z,49.04
2022-09-05T20:12:09.926Z,48.92
2022-09-05T20:14:43.182Z,48.54
2022-09-05T20:17:31.648Z,49.00
2022-09-05T20:20:30.689Z,49.16
2022-09-05T20:23:06.444Z,49.52
2022-09-05T20:25:48.122Z,50.21
2022-09-05T20:28:29.055Z,50.25
2022-09-05T20:31:08.751Z,50.23
2022-09-05T20:34:32.231Z,50.28
2022-09-05T20:43:11.040Z,49.82
2022-09-05T20:43:14.981Z,50.95
2022-09-05T20:43:22.629Z,50.51
2022-09-05T20:45:03.060Z,50.61
2022-09-05T20:54:08.016Z,51.08
2022-09-05T20:54:16.977Z,50.34
2022-09-05T20:54:27.553Z,51.22
2022-09-05T20:55:42.331Z,50.40
2022-09-05T20:58:31.137Z,50.94
2022-09-05T21:01:21.947Z,51.26
2022-09-05T21:04:03.252Z,51.34
2022-09-05T21:06:37.520Z,51.64
2022-09-05T21:09:25.457Z,51.85
2022-09-05T21:11:59.171Z,51.90
2022-09-05T21:14:33.353Z,52.28
2022-09-05T21:17:14.977Z,52.17
2022-09-05T21:19:41.952Z,52.25
2022-09-05T21:22:24.878Z,52.17
2022-09-05T21:25:17.837Z,52.68
2022-09-05T21:28:10.129Z,52.92
2022-09-05T21:30:46.689Z,53.36
2022-09-05T21:33:29.448Z,53.77
2022-09-05T21:36:02.761Z,53.70
2022-09-05T21:38:43.761Z,54.15
2022-09-05T21:41:17.516Z,54.53
2022-09-05T21:47:33.786Z,54.13
2022-09-05T21:47:40.905Z,54.01
2022-09-05T21:49:10.418Z,54.71
2022-09-05T21:51:48.188Z,54.61
2022-09-05T21:59:13.735Z,54.82
2022-09-05T21:59:30.075Z,55.17
2022-09-05T21:59:45.310Z,55.36
2022-09-05T22:02:11.679Z,55.15
2022-09-05T22:04:44.700Z,55.26
2022-09-05T22:07:27.944Z,55.12
2022-09-05T22:10:06.228Z,55.01
2022-09-05T22:12:41.960Z,55.24
2022-09-05T22:15:27.282Z,55.32
2022-09-05T22:17:50.072Z,55.66
2022-09-05T22:20:24.068Z,55.44
2022-09-05T22:22:57.143Z,56.00
2022-09-05T22:25:33.717Z,56.30
2022-09-05T22:28:19.940Z,56.44
2022-09-05T22:30:53.185Z,56.64
2022-09-05T22:33:26.473Z,56.66
2022-09-05T22:35:59.646Z,56.85
2022-09-05T22:38:34.731Z,57.39
2022-09-05T22:41:09.000Z,57.67
2022-09-05T22:43:43.676Z,57.68
2022-09-05T22:46:17.930Z,58.21
2022-09-05T22:48:51.083Z,58.32
2022-09-05T22:51:24.279Z,58.24
2022-09-05T22:53:58.036Z,58.14
2022-09-05T22:56:38.513Z,58.12
2022-09-05T22:59:13.065Z,58.43
2022-09-05T23:01:46.717Z,58.06
2022-09-05T23:04:20.120Z,58.31
2022-09-05T23:06:53.358Z,58.01
2022-09-05T23:09:45.924Z,58.00
2022-09-05T23:12:20.422Z,57.87
2022-09-05T23:14:53.642Z,57.78
2022-09-05T23:17:26.821Z,57.61
2022-09-05T23:19:59.855Z,57.66
2022-09-05T23:22:33.140Z,57.90
2022-09-05T23:25:07.954Z,58.13
2022-09-05T23:27:42.622Z,58.39
2022-09-05T23:30:16.830Z,58.94
2022-09-05T23:32:52.120Z,59.16
2022-09-05T23:35:25.217Z,58.95
2022-09-05T23:37:58.664Z,59.00
2022-09-05T23:40:32.797Z,58.99
2022-09-05T23:43:06.225Z,59.10
2022-09-05T23:45:40.444Z,59.61
2022-09-05T23:48:13.611Z,59.68
2022-09-05T23:50:46.734Z,59.84
2022-09-05T23:53:20.217Z,60.02
2022-09-05T23:55:53.313Z,60.24
2022-09-05T23:58:29.824Z,60.47
